Bologoe, Russia
Current Conditions -  °F | °C
As of 9:30 PM on Saturday 25 Oct 2014 (Local Time) from ULWC Reporting Station
Clear Clear  
Wind Chill: 23°   Ceiling: Unl
Heat Index: 23°   Visibility: 6mi
Dew Point: 16°   Wind: 2mph
Humidity: 74%   Direction: 150°SSE
Pressure: 30.48"   Gusts: NA
Location:  57.9°N, 34.05°E
Report Text: ULWC 251830Z 15001MPS CAVOK M05/M09 Q1032 NOSIG RMK QFE764/1019SC047
Loading
Personal Weather Stations






























Interactive Weather Map
Tropical Storm Tracking
New forecast layout! Learn more

10-Day Weather Forecast

Advertisements
Track Severe Weather on mobile